createdAt,value
2022-10-19T00:00:12.948Z,101162.38
2022-10-19T00:05:37.837Z,101158.44
2022-10-19T00:11:02.925Z,101145.81
2022-10-19T00:16:31.287Z,101146.28
2022-10-19T00:21:55.882Z,101141.66
2022-10-19T00:27:21.112Z,101116.75
2022-10-19T00:32:48.290Z,101108.13
2022-10-19T00:38:13.166Z,101102.84
2022-10-19T00:43:53.325Z,101094.50
2022-10-19T00:49:23.622Z,101089.47
2022-10-19T00:54:50.834Z,101085.47
2022-10-19T01:00:19.461Z,101085.78
2022-10-19T01:05:44.841Z,101087.59
2022-10-19T01:11:24.977Z,101081.13
2022-10-19T01:16:58.582Z,101084.75
2022-10-19T01:22:36.218Z,101082.56
2022-10-19T01:28:17.761Z,101079.19
2022-10-19T01:33:53.093Z,101081.97
2022-10-19T01:39:36.881Z,101072.19
2022-10-19T01:45:07.100Z,101069.31
2022-10-19T01:50:39.535Z,101059.50
2022-10-19T01:56:08.058Z,101048.97
2022-10-19T02:01:36.679Z,101043.31
2022-10-19T02:07:03.898Z,101037.91
2022-10-19T02:12:30.080Z,101038.00
2022-10-19T02:17:59.807Z,101031.28
2022-10-19T02:23:28.825Z,101027.09
2022-10-19T02:28:55.874Z,101025.59
2022-10-19T02:34:21.919Z,101027.47
2022-10-19T02:39:48.159Z,101010.97
2022-10-19T02:45:18.541Z,101000.91
2022-10-19T02:50:45.366Z,100997.03
2022-10-19T02:56:11.786Z,100989.56
2022-10-19T03:01:37.066Z,100974.13
2022-10-19T03:07:02.077Z,100955.06
2022-10-19T03:12:27.786Z,100955.72
2022-10-19T03:17:53.981Z,100952.34
2022-10-19T03:23:19.684Z,100939.91
2022-10-19T03:28:45.279Z,100937.78
2022-10-19T03:34:09.550Z,100936.81
2022-10-19T03:39:33.697Z,100923.69
2022-10-19T03:44:59.313Z,100900.78
2022-10-19T03:50:24.902Z,100894.91
2022-10-19T03:55:49.852Z,100886.16
2022-10-19T04:01:16.906Z,100879.97
2022-10-19T04:06:44.014Z,100873.50
2022-10-19T04:12:08.290Z,100865.75
2022-10-19T04:17:34.038Z,100866.31
2022-10-19T04:22:58.505Z,100861.19
2022-10-19T04:28:23.748Z,100839.97
2022-10-19T04:33:49.873Z,100846.72
2022-10-19T04:39:15.534Z,100834.16
2022-10-19T04:44:44.183Z,100834.59
2022-10-19T04:50:14.401Z,100814.31
2022-10-19T04:55:41.984Z,100800.03
2022-10-19T05:01:11.184Z,100794.41
2022-10-19T05:06:37.651Z,100776.81
2022-10-19T05:12:02.207Z,100763.94
2022-10-19T05:17:31.064Z,100776.84
2022-10-19T05:22:57.399Z,100771.31
2022-10-19T05:28:22.103Z,100762.25
2022-10-19T05:33:46.862Z,100742.91
2022-10-19T05:39:15.521Z,100737.13
2022-10-19T05:44:40.112Z,100744.38
2022-10-19T05:50:05.506Z,100729.22
2022-10-19T05:55:36.661Z,100721.97
2022-10-19T06:01:01.381Z,100715.53
2022-10-19T06:06:26.393Z,100714.19
2022-10-19T06:11:51.615Z,100710.84
2022-10-19T06:17:16.298Z,100689.41
2022-10-19T06:22:40.073Z,100690.75
2022-10-19T06:28:05.811Z,100679.19
2022-10-19T06:33:30.041Z,100664.88
2022-10-19T06:38:54.731Z,100660.94
2022-10-19T06:44:21.393Z,100655.78
2022-10-19T06:49:46.570Z,100656.66
2022-10-19T06:55:17.126Z,100642.53
2022-10-19T07:00:44.097Z,100647.72
2022-10-19T07:06:10.831Z,100632.72
2022-10-19T07:11:35.317Z,100612.84
2022-10-19T07:17:01.842Z,100621.75
2022-10-19T07:22:28.247Z,100601.81
2022-10-19T07:27:52.917Z,100577.16
2022-10-19T07:33:20.542Z,100572.84
2022-10-19T07:38:44.957Z,100557.34
2022-10-19T07:44:12.166Z,100549.91
2022-10-19T07:49:41.646Z,100538.81
2022-10-19T07:55:07.837Z,100527.03
2022-10-19T08:00:32.292Z,100520.72
2022-10-19T08:06:02.568Z,100500.19
2022-10-19T08:11:30.081Z,100514.59
2022-10-19T08:16:54.930Z,100488.34
2022-10-19T08:22:20.730Z,100482.03
2022-10-19T08:27:47.129Z,100459.59
2022-10-19T08:33:12.694Z,100448.09
2022-10-19T08:38:39.602Z,100423.66
2022-10-19T08:44:25.846Z,100447.28
2022-10-19T08:49:50.330Z,100441.00
2022-10-19T08:55:23.221Z,100447.19
2022-10-19T09:00:56.290Z,100454.31
2022-10-19T09:06:27.591Z,100441.13
2022-10-19T09:11:59.738Z,100446.63
2022-10-19T09:17:26.279Z,100448.56
2022-10-19T09:22:59.843Z,100438.41
2022-10-19T09:28:42.396Z,100429.03
2022-10-19T09:34:14.503Z,100422.97
2022-10-19T09:39:41.032Z,100418.38
2022-10-19T09:45:19.807Z,100406.41
2022-10-19T09:50:45.720Z,100378.34
2022-10-19T09:56:19.663Z,100373.19
2022-10-19T10:01:45.761Z,100380.66
2022-10-19T10:07:17.302Z,100374.59
2022-10-19T10:12:44.234Z,100373.34
2022-10-19T10:18:15.394Z,100373.94
2022-10-19T10:23:40.208Z,100374.53
2022-10-19T10:29:19.379Z,100352.56
2022-10-19T10:34:54.874Z,100350.00
2022-10-19T10:40:25.460Z,100324.88
2022-10-19T10:45:54.735Z,100323.16
2022-10-19T10:51:24.904Z,100305.94
2022-10-19T10:57:06.720Z,100306.66
2022-10-19T11:02:41.234Z,100313.00
2022-10-19T11:08:15.696Z,100301.13
2022-10-19T11:13:46.002Z,100298.09
2022-10-19T11:19:17.816Z,100271.69
2022-10-19T11:24:57.173Z,100278.78
2022-10-19T11:30:23.383Z,100270.97
2022-10-19T11:35:53.135Z,100287.00
2022-10-19T11:41:28.385Z,100280.75
2022-10-19T11:47:08.095Z,100271.09
2022-10-19T11:52:46.257Z,100271.16
2022-10-19T11:58:34.829Z,100254.91
2022-10-19T12:04:36.456Z,100251.97
2022-10-19T12:10:10.141Z,100251.88
2022-10-19T12:15:40.758Z,100255.63
2022-10-19T12:21:11.103Z,100245.75
2022-10-19T12:26:37.593Z,100250.63
2022-10-19T12:32:05.893Z,100246.19
2022-10-19T12:37:36.185Z,100250.31
2022-10-19T12:43:06.200Z,100252.03
2022-10-19T12:48:32.948Z,100248.72
2022-10-19T12:54:09.622Z,100241.00
2022-10-19T12:59:36.910Z,100235.00
2022-10-19T13:05:03.037Z,100232.50
2022-10-19T13:10:29.509Z,100222.34
2022-10-19T13:15:55.165Z,100215.75
2022-10-19T13:22:01.127Z,100204.22
2022-10-19T13:27:38.869Z,100205.78
2022-10-19T13:33:42.761Z,100186.03
2022-10-19T13:39:17.214Z,100192.34
2022-10-19T13:44:47.290Z,100195.00
2022-10-19T13:50:18.769Z,100186.22
2022-10-19T13:55:56.690Z,100180.94
2022-10-19T14:01:40.310Z,100178.00
2022-10-19T14:07:11.623Z,100175.56
2022-10-19T14:12:41.503Z,100180.28
2022-10-19T14:18:24.873Z,100171.78
2022-10-19T14:23:51.818Z,100172.31
2022-10-19T14:29:16.312Z,100179.19
2022-10-19T14:34:43.202Z,100175.88
2022-10-19T14:40:26.630Z,100179.91
2022-10-19T14:46:14.916Z,100193.56
2022-10-19T14:51:44.775Z,100191.91
2022-10-19T14:57:15.568Z,100189.09
2022-10-19T15:02:44.381Z,100198.34
2022-10-19T15:08:13.137Z,100199.38
2022-10-19T15:13:43.079Z,100209.13
2022-10-19T15:19:16.752Z,100209.09
2022-10-19T15:24:57.046Z,100210.06
2022-10-19T15:30:30.264Z,100214.00
2022-10-19T15:36:07.360Z,100213.78
2022-10-19T15:41:34.771Z,100225.81
2022-10-19T15:47:23.209Z,100230.28
2022-10-19T15:52:47.785Z,100234.59
2022-10-19T15:58:15.229Z,100232.81
2022-10-19T16:03:40.621Z,100245.31
2022-10-19T16:09:05.809Z,100245.91
2022-10-19T16:14:34.360Z,100249.88
2022-10-19T16:20:04.171Z,100262.59
2022-10-19T16:25:28.847Z,100276.44
2022-10-19T16:30:57.153Z,100274.91
2022-10-19T16:36:25.628Z,100266.59
2022-10-19T16:41:50.368Z,100271.97
2022-10-19T16:47:17.055Z,100280.31
2022-10-19T16:52:42.249Z,100276.22
2022-10-19T16:58:06.950Z,100274.22
2022-10-19T17:03:33.282Z,100278.16
2022-10-19T17:14:44.004Z,100263.09
2022-10-19T17:20:11.730Z,100262.91
2022-10-19T17:25:37.206Z,100242.19
2022-10-19T17:31:06.601Z,100247.41
2022-10-19T17:36:34.578Z,100245.16
2022-10-19T17:42:02.118Z,100244.00
2022-10-19T17:47:27.114Z,100246.00
2022-10-19T17:52:53.982Z,100236.75
2022-10-19T17:58:20.580Z,100241.38
2022-10-19T18:03:46.555Z,100245.75
2022-10-19T18:09:13.739Z,100248.47
2022-10-19T18:14:38.743Z,100258.19
2022-10-19T18:20:05.548Z,100250.38
2022-10-19T18:25:52.848Z,100244.47
2022-10-19T18:31:20.584Z,100238.31
2022-10-19T18:36:45.419Z,100246.00
2022-10-19T18:42:13.187Z,100245.41
2022-10-19T18:47:37.853Z,100236.16
2022-10-19T18:53:03.675Z,100245.16
2022-10-19T18:58:30.976Z,100235.59
2022-10-19T19:03:57.242Z,100235.69
2022-10-19T19:09:22.200Z,100221.50
2022-10-19T19:14:48.646Z,100220.44
2022-10-19T19:20:15.338Z,100219.38
2022-10-19T19:25:41.107Z,100205.03
2022-10-19T19:31:08.281Z,100204.22
2022-10-19T19:36:32.311Z,100202.94
2022-10-19T19:41:57.029Z,100212.16
2022-10-19T19:47:22.849Z,100224.81
2022-10-19T19:52:49.198Z,100225.28
2022-10-19T19:58:13.177Z,100225.19
2022-10-19T20:03:38.897Z,100223.38
2022-10-19T20:09:02.991Z,100224.22
2022-10-19T20:14:26.987Z,100214.19
2022-10-19T20:19:55.932Z,100214.38
2022-10-19T20:25:20.436Z,100226.56
2022-10-19T20:30:44.999Z,100224.81
2022-10-19T20:36:12.127Z,100217.72
2022-10-19T20:41:36.774Z,100212.84
2022-10-19T20:47:01.217Z,100205.06
2022-10-19T20:52:28.436Z,100188.59
2022-10-19T20:57:52.902Z,100194.16
2022-10-19T21:03:17.664Z,100187.41
2022-10-19T21:08:44.055Z,100179.94
2022-10-19T21:14:11.675Z,100184.34
2022-10-19T21:19:36.429Z,100179.50
2022-10-19T21:25:02.872Z,100179.63
2022-10-19T21:30:28.404Z,100171.09
2022-10-19T21:35:54.266Z,100172.28
2022-10-19T21:41:25.419Z,100177.75
2022-10-19T21:46:51.393Z,100165.28
2022-10-19T21:52:16.282Z,100167.09
2022-10-19T21:57:42.085Z,100168.47
2022-10-19T22:03:08.324Z,100173.09
2022-10-19T22:08:33.475Z,100170.38
2022-10-19T22:14:03.876Z,100168.94
2022-10-19T22:19:29.272Z,100164.69
2022-10-19T22:24:52.858Z,100159.97
2022-10-19T22:30:18.237Z,100152.94
2022-10-19T22:35:44.049Z,100155.41
2022-10-19T22:41:08.664Z,100151.47
2022-10-19T22:46:34.729Z,100140.22
2022-10-19T22:52:01.092Z,100146.13
2022-10-19T22:57:25.509Z,100146.13
2022-10-19T23:02:52.124Z,100146.84
2022-10-19T23:08:16.853Z,100147.69
2022-10-19T23:13:41.855Z,100141.06
2022-10-19T23:19:07.741Z,100135.63
2022-10-19T23:24:32.588Z,100134.03
2022-10-19T23:29:59.321Z,100142.34
2022-10-19T23:35:25.582Z,100122.22
2022-10-19T23:40:50.246Z,100132.41
2022-10-19T23:46:14.917Z,100123.09
2022-10-19T23:51:41.032Z,100115.38
2022-10-19T23:57:05.635Z,100107.59
